Pearl Of Scandinavia — OWFU2 — position and weather

sailwx.info

Track history (hours):
 
Tides and Currents Weather Stations Pressure Air Temp Water Temp Dewpoint Dewpoint Depression Visibility Wind Speed Wind Dir Waves Ship Positions

Pearl Of Scandinavia

Last reported at 2015-Mar-30 01:34 UTC. Time now 2015-Mar-30 02:20 UTC.
Position N 57°08' E 011°55'.

Length 176.4 m; beam 34 m; draft 6.215 m.

Type: Ship. MMSI: 219945000.

Date/timePositionNaut miles runAvg speedWind from/ knotsBaromVisibWave heightAir tempDewpointWater temp
2015-Mar-30 01:34N 57°08' E 011°55'1616.4
2015-Mar-30 00:33N 57°23' E 011°41'1717.0
2015-Mar-29 23:33N 57°37' E 011°25'1717.0
2015-Mar-29 22:33N 57°53' E 011°15'1615.7
2015-Mar-29 21:33N 58°08' E 011°06'1615.5
2015-Mar-29 20:33N 58°23' E 010°58'1515.4
2015-Mar-29 19:33N 58°38' E 010°47'1615.9
2015-Mar-29 18:33N 58°53' E 010°42'1716.6
2015-Mar-29 17:33N 59°10' E 010°38'1616.0
2015-Mar-29 16:33N 59°26' E 010°33'2914.2
2015-Mar-29 14:32N 59°54' E 010°43'1 0.8
2015-Mar-29 13:20N 59°54' E 010°45'0 0.0
2015-Mar-29 12:23N 59°54' E 010°45'0 0.0
2015-Mar-29 11:26N 59°54' E 010°45'0 0.0
2015-Mar-29 10:26N 59°54' E 010°45'0 0.0
2015-Mar-29 09:23N 59°54' E 010°45'0 0.0
2015-Mar-29 08:29N 59°54' E 010°45'2110.6
2015-Mar-29 06:33N 59°34' E 010°38'1717.4
2015-Mar-29 05:33N 59°17' E 010°37'1817.2
2015-Mar-29 04:29N 58°58' E 010°37'1516.6
2015-Mar-29 03:33N 58°43' E 010°34'1616.1
2015-Mar-29 02:34N 58°27' E 010°40'1616.5
2015-Mar-29 01:34N 58°12' E 010°50'1716.5
2015-Mar-29 00:34N 57°56' E 011°00'1716.7
2015-Mar-28 23:34N 57°40' E 011°11'1616.0
2015-Mar-28 22:34N 57°27' E 011°29'1716.8
2015-Mar-28 21:33N 57°11' E 011°39'1716.9
2015-Mar-28 20:33N 56°56' E 011°50'1616.3
2015-Mar-28 19:33N 56°42' E 012°06'1717.4
2015-Mar-28 18:33N 56°26' E 012°18'1716.6
2015-Mar-28 17:34N 56°11' E 012°30'1616.2
2015-Mar-28 16:33N 55°56' E 012°43'1414.1
2015-Mar-28 15:33N 55°43' E 012°37'1 0.6
2015-Mar-28 14:31N 55°42' E 012°36'0 0.0
2015-Mar-28 13:31N 55°42' E 012°36'0 0.0
2015-Mar-28 12:31N 55°42' E 012°36'0 0.0
2015-Mar-28 11:31N 55°42' E 012°36'0 0.0
2015-Mar-28 10:31N 55°42' E 012°36'0 0.0
2015-Mar-28 09:28N 55°42' E 012°36'0 0.3
2015-Mar-28 08:33N 55°42' E 012°36'1111.1
2015-Mar-28 07:33N 55°53' E 012°40'1413.9
2015-Mar-28 06:33N 56°06' E 012°33'1615.7
2015-Mar-28 05:33N 56°21' E 012°22'1615.7
2015-Mar-28 04:33N 56°36' E 012°13'1615.9
2015-Mar-28 03:33N 56°51' E 012°05'1616.2
2015-Mar-28 02:33N 57°07' E 011°56'1716.9
2015-Mar-28 01:33N 57°22' E 011°42'1717.0
2015-Mar-28 00:33N 57°37' E 011°27'1817.6
2015-Mar-27 23:33N 57°53' E 011°15'1615.9
2015-Mar-27 22:33N 58°08' E 011°06'1515.4
2015-Mar-27 21:33N 58°23' E 010°58'1616.0
2015-Mar-27 20:33N 58°38' E 010°50'1716.4
2015-Mar-27 19:33N 58°54' E 010°43'1716.7
2015-Mar-27 18:33N 59°11' E 010°38'1716.8
2015-Mar-27 17:33N 59°28' E 010°33'2713.5
2015-Mar-27 15:33N 59°54' E 010°45'0 0.1
2015-Mar-27 14:29N 59°54' E 010°45'0 0.0
2015-Mar-27 13:29N 59°54' E 010°45'0 0.0
2015-Mar-27 12:32N 59°54' E 010°45'0 0.0
2015-Mar-27 11:32N 59°54' E 010°45'0 0.0
2015-Mar-27 10:32N 59°54' E 010°45'0 0.0
2015-Mar-27 09:32N 59°54' E 010°45'0 0.1
2015-Mar-27 08:34N 59°54' E 010°45'2713.3
2015-Mar-27 06:33N 59°28' E 010°34'1616.0
2015-Mar-27 05:33N 59°12' E 010°39'1716.6
2015-Mar-27 04:33N 58°56' E 010°42'1616.5
2015-Mar-27 03:33N 58°39' E 010°47'1616.2
2015-Mar-27 02:33N 58°24' E 010°57'1616.5
2015-Mar-27 01:33N 58°08' E 011°07'1716.6
2015-Mar-27 00:33N 57°52' E 011°15'1616.4
2015-Mar-26 23:33N 57°37' E 011°24'1616.2
2015-Mar-26 22:33N 57°21' E 011°33'1616.2
2015-Mar-26 21:33N 57°06' E 011°43'1716.7
2015-Mar-26 20:33N 56°50' E 011°53'1716.6
2015-Mar-26 19:33N 56°34' E 012°01'1615.8
2015-Mar-26 18:33N 56°20' E 012°14'1716.6
2015-Mar-26 17:33N 56°07' E 012°33'1615.7
2015-Mar-26 16:34N 55°53' E 012°44'1211.9
2015-Mar-26 15:33N 55°42' E 012°36'0 0.0
2015-Mar-26 14:31N 55°42' E 012°36'0 0.0
2015-Mar-26 13:31N 55°42' E 012°36'0 0.0
2015-Mar-26 12:31N 55°42' E 012°36'0 0.0
2015-Mar-26 11:31N 55°42' E 012°36'0 0.0
2015-Mar-26 10:31N 55°42' E 012°36'0 0.0
2015-Mar-26 09:31N 55°42' E 012°36'0 0.2
2015-Mar-26 08:33N 55°42' E 012°36'1110.6
2015-Mar-26 07:33N 55°53' E 012°40'1313.3
2015-Mar-26 06:33N 56°06' E 012°34'1413.6
2015-Mar-26 05:33N 56°18' E 012°23'1514.5
2015-Mar-26 04:32N 56°32' E 012°16'1414.8
2015-Mar-26 03:33N 56°46' E 012°08'1514.8
2015-Mar-26 02:33N 56°60' E 012°01'1514.8
2015-Mar-26 01:33N 57°14' E 011°52'1515.0
2015-Mar-26 00:33N 57°26' E 011°36'1616.1
2015-Mar-25 23:33N 57°41' E 011°24'1817.8
2015-Mar-25 22:33N 57°58' E 011°12'1717.4
2015-Mar-25 21:33N 58°14' E 011°03'1818.1
2015-Mar-25 20:33N 58°32' E 010°53'1817.8
2015-Mar-25 19:33N 58°49' E 010°45'2118.1
2015-Mar-25 18:24N 59°10' E 010°38'1518.2
2015-Mar-25 17:33N 59°25' E 010°33'3014.8
2015-Mar-25 15:33N 59°54' E 010°44'1 0.5
2015-Mar-25 14:22N 59°54' E 010°45'0 0.0
2015-Mar-25 13:25N 59°54' E 010°45'0 0.0
2015-Mar-25 12:22N 59°54' E 010°45'0 0.0
2015-Mar-25 11:25N 59°54' E 010°45'0 0.0
2015-Mar-25 10:28N 59°54' E 010°45'0 0.0
2015-Mar-25 09:28N 59°54' E 010°45'0 0.1
2015-Mar-25 08:33N 59°54' E 010°45'2713.4
2015-Mar-25 06:33N 59°28' E 010°34'1616.0
2015-Mar-25 05:34N 59°12' E 010°39'1616.0
2015-Mar-25 04:34N 58°56' E 010°42'1616.2
2015-Mar-25 03:33N 58°40' E 010°46'1616.3
2015-Mar-25 02:34N 58°25' E 010°56'1616.1
2015-Mar-25 01:34N 58°09' E 011°05'1616.3
2015-Mar-25 00:34N 57°54' E 011°14'1616.1
2015-Mar-24 23:33N 57°38' E 011°23'1615.8
2015-Mar-24 22:34N 57°23' E 011°32'1616.2
2015-Mar-24 21:34N 57°08' E 011°42'1616.2
2015-Mar-24 20:33N 56°52' E 011°52'1616.0
2015-Mar-24 19:34N 56°37' E 011°59'1616.0
2015-Mar-24 18:34N 56°23' E 012°12'1616.4
2015-Mar-24 17:34N 56°10' E 012°30'1515.2
2015-Mar-24 16:33N 55°57' E 012°43'1413.9
2015-Mar-24 15:33N 55°43' E 012°38'1 1.3
2015-Mar-24 14:31N 55°42' E 012°36'0 0.0
2015-Mar-24 13:31N 55°42' E 012°36'0 0.0
2015-Mar-24 12:31N 55°42' E 012°36'0 0.0
2015-Mar-24 11:31N 55°42' E 012°36'0 0.0
2015-Mar-24 10:31N 55°42' E 012°36'0 0.0
2015-Mar-24 09:31N 55°42' E 012°36'0 0.3
2015-Mar-24 08:33N 55°42' E 012°36'1111.5
2015-Mar-24 07:33N 55°54' E 012°40'1514.5
2015-Mar-24 06:33N 56°07' E 012°31'1715.7
2015-Mar-24 05:27N 56°24' E 012°20'1516.4
2015-Mar-24 04:32N 56°38' E 012°14'1616.3
2015-Mar-24 03:33N 56°54' E 012°07'1616.1
2015-Mar-24 02:33N 57°08' E 011°55'1616.2
2015-Mar-24 01:33N 57°22' E 011°40'1716.7
2015-Mar-24 00:33N 57°37' E 011°24'1717.0
2015-Mar-23 23:33N 57°52' E 011°12'1616.1
2015-Mar-23 22:33N 58°08' E 011°05'1616.3
2015-Mar-23 21:33N 58°24' E 010°55'1616.4
2015-Mar-23 20:33N 58°39' E 010°46'2015.6
2015-Mar-23 19:17N 58°59' E 010°41'1215.8
2015-Mar-23 18:33N 59°10' E 010°38'1615.8
2015-Mar-23 17:34N 59°26' E 010°33'2814.2
2015-Mar-23 15:33N 59°54' E 010°42'1 1.0
2015-Mar-23 14:09N 59°54' E 010°45'0 0.0
2015-Mar-23 13:27N 59°54' E 010°45'0 0.0
2015-Mar-23 12:27N 59°54' E 010°45'0 0.0
2015-Mar-23 11:27N 59°54' E 010°45'0 0.0
2015-Mar-23 10:30N 59°54' E 010°45'0 0.0
2015-Mar-23 09:15N 59°54' E 010°45'0 0.2
2015-Mar-23 08:33N 59°54' E 010°45'2713.3
2015-Mar-23 06:34N 59°28' E 010°34'1716.7
2015-Mar-23 05:34N 59°11' E 010°39'3215.9
2015-Mar-23 03:32N 58°39' E 010°47'1515.5
2015-Mar-23 02:34N 58°25' E 010°56'1616.0
2015-Mar-23 01:34N 58°10' E 011°06'1616.2
2015-Mar-23 00:33N 57°54' E 011°16'1615.8
2015-Mar-22 23:34N 57°40' E 011°25'1615.9
2015-Mar-22 22:34N 57°24' E 011°32'1616.3
2015-Mar-22 21:33N 57°08' E 011°41'1616.4
2015-Mar-22 20:33N 56°53' E 011°51'1616.3
2015-Mar-22 19:33N 56°39' E 012°07'1816.2
2015-Mar-22 18:28N 56°23' E 012°20'1716.4
2015-Mar-22 17:26N 56°08' E 012°32'1415.9
2015-Mar-22 16:33N 55°55' E 012°44'1413.6
2015-Mar-22 15:34N 55°42' E 012°36'0 0.4
2015-Mar-22 14:31N 55°42' E 012°36'0 0.0
2015-Mar-22 13:31N 55°42' E 012°36'0 0.0
2015-Mar-22 12:31N 55°42' E 012°36'0 0.0
2015-Mar-22 11:31N 55°42' E 012°36'0 0.0
2015-Mar-22 10:31N 55°42' E 012°36'0 0.0
2015-Mar-22 09:31N 55°42' E 012°36'0 0.0
2015-Mar-22 08:28N 55°42' E 012°36'0 0.0
2015-Mar-22 07:31N 55°42' E 012°36'8 8.8
2015-Mar-22 06:33N 55°50' E 012°42'1414.5
2015-Mar-22 05:33N 56°04' E 012°37'1414.0
2015-Mar-22 04:33N 56°16' E 012°24'1413.8
2015-Mar-22 03:33N 56°29' E 012°18'1414.0
2015-Mar-22 02:33N 56°43' E 012°13'1414.4
2015-Mar-22 01:33N 56°57' E 012°06'1514.6
2015-Mar-22 00:33N 57°11' E 011°55'1514.6
2015-Mar-21 23:34N 57°23' E 011°41'1716.5
2015-Mar-21 22:33N 57°37' E 011°25'1717.4
2015-Mar-21 21:33N 57°53' E 011°14'1717.2
2015-Mar-21 20:33N 58°10' E 011°05'1716.9
2015-Mar-21 19:33N 58°26' E 010°56'1717.3
2015-Mar-21 18:33N 58°43' E 010°47'3517.4
2015-Mar-21 16:33N 59°17' E 010°36'1717.4
2015-Mar-21 15:34N 59°34' E 010°38'1915.0
2015-Mar-21 14:20N 59°53' E 010°39'3 3.3
2015-Mar-21 13:25N 59°54' E 010°45'0 0.0
2015-Mar-21 12:22N 59°54' E 010°45'0 0.0
2015-Mar-21 11:28N 59°54' E 010°45'0 0.0
2015-Mar-21 10:28N 59°54' E 010°45'0 0.0
2015-Mar-21 09:28N 59°54' E 010°45'0 0.2
2015-Mar-21 08:33N 59°54' E 010°44'2613.2
2015-Mar-21 06:33N 59°28' E 010°34'1515.4
2015-Mar-21 05:33N 59°13' E 010°39'1515.4
2015-Mar-21 04:33N 58°58' E 010°42'1615.5
2015-Mar-21 03:33N 58°42' E 010°45'1515.1
2015-Mar-21 02:33N 58°28' E 010°54'1615.7
2015-Mar-21 01:33N 58°13' E 011°03'1616.2
2015-Mar-21 00:33N 57°57' E 011°12'1616.5
2015-Mar-20 23:33N 57°42' E 011°21'1716.6
2015-Mar-20 22:33N 57°26' E 011°31'1717.0
2015-Mar-20 21:33N 57°10' E 011°40'1616.7
2015-Mar-20 20:33N 56°54' E 011°50'1616.2
2015-Mar-20 19:33N 56°40' E 012°06'1716.8
2015-Mar-20 18:33N 56°25' E 012°17'1717.2
2015-Mar-20 17:33N 56°09' E 012°30'1716.5
2015-Mar-20 16:34N 55°54' E 012°44'1313.2
2015-Mar-20 15:33N 55°42' E 012°36'0 0.0
2015-Mar-20 14:33N 55°42' E 012°36'0 0.0
2015-Mar-20 13:33N 55°42' E 012°36'0 0.0
2015-Mar-20 12:30N 55°42' E 012°36'0 0.0
2015-Mar-20 11:33N 55°42' E 012°36'0 0.0
2015-Mar-20 10:33N 55°42' E 012°36'0 0.0
2015-Mar-20 09:33N 55°42' E 012°36'0 0.3
2015-Mar-20 08:33N 55°42' E 012°36'1111.5
2015-Mar-20 07:34N 55°54' E 012°40'1414.1
2015-Mar-20 06:33N 56°07' E 012°32'1514.9
2015-Mar-20 05:33N 56°21' E 012°22'1514.8
2015-Mar-20 04:33N 56°35' E 012°16'1515.5
2015-Mar-20 03:33N 56°50' E 012°10'1515.4
2015-Mar-20 02:34N 57°05' E 012°01'  
Track history (hours):
 
Tides and Currents Weather Stations Pressure Air Temp Water Temp Dewpoint Dewpoint Depression Visibility Wind Speed Wind Dir Waves Ship Positions

Pearl Of Scandinavia

Last reported at 2015-Mar-30 01:34 UTC. Time now 2015-Mar-30 02:20 UTC.
Position N 57°08' E 011°55'.

Length 176.4 m; beam 34 m; draft 6.215 m.

Type: Ship. MMSI: 219945000.

Date/timePositionNaut miles runAvg speedWind from/ knotsBaromVisibWave heightAir tempDewpointWater temp
2015-Mar-30 01:34N 57°08' E 011°55'1616.4
2015-Mar-30 00:33N 57°23' E 011°41'1717.0
2015-Mar-29 23:33N 57°37' E 011°25'1717.0
2015-Mar-29 22:33N 57°53' E 011°15'1615.7
2015-Mar-29 21:33N 58°08' E 011°06'1615.5
2015-Mar-29 20:33N 58°23' E 010°58'1515.4
2015-Mar-29 19:33N 58°38' E 010°47'1615.9
2015-Mar-29 18:33N 58°53' E 010°42'1716.6
2015-Mar-29 17:33N 59°10' E 010°38'1616.0
2015-Mar-29 16:33N 59°26' E 010°33'2914.2
2015-Mar-29 14:32N 59°54' E 010°43'1 0.8
2015-Mar-29 13:20N 59°54' E 010°45'0 0.0
2015-Mar-29 12:23N 59°54' E 010°45'0 0.0
2015-Mar-29 11:26N 59°54' E 010°45'0 0.0
2015-Mar-29 10:26N 59°54' E 010°45'0 0.0
2015-Mar-29 09:23N 59°54' E 010°45'0 0.0
2015-Mar-29 08:29N 59°54' E 010°45'2110.6
2015-Mar-29 06:33N 59°34' E 010°38'1717.4
2015-Mar-29 05:33N 59°17' E 010°37'1817.2
2015-Mar-29 04:29N 58°58' E 010°37'1516.6
2015-Mar-29 03:33N 58°43' E 010°34'1616.1
2015-Mar-29 02:34N 58°27' E 010°40'1616.5
2015-Mar-29 01:34N 58°12' E 010°50'1716.5
2015-Mar-29 00:34N 57°56' E 011°00'1716.7
2015-Mar-28 23:34N 57°40' E 011°11'1616.0
2015-Mar-28 22:34N 57°27' E 011°29'1716.8
2015-Mar-28 21:33N 57°11' E 011°39'1716.9
2015-Mar-28 20:33N 56°56' E 011°50'1616.3
2015-Mar-28 19:33N 56°42' E 012°06'1717.4
2015-Mar-28 18:33N 56°26' E 012°18'1716.6
2015-Mar-28 17:34N 56°11' E 012°30'1616.2
2015-Mar-28 16:33N 55°56' E 012°43'1414.1
2015-Mar-28 15:33N 55°43' E 012°37'1 0.6
2015-Mar-28 14:31N 55°42' E 012°36'0 0.0
2015-Mar-28 13:31N 55°42' E 012°36'0 0.0
2015-Mar-28 12:31N 55°42' E 012°36'0 0.0
2015-Mar-28 11:31N 55°42' E 012°36'0 0.0
2015-Mar-28 10:31N 55°42' E 012°36'0 0.0
2015-Mar-28 09:28N 55°42' E 012°36'0 0.3
2015-Mar-28 08:33N 55°42' E 012°36'1111.1
2015-Mar-28 07:33N 55°53' E 012°40'1413.9
2015-Mar-28 06:33N 56°06' E 012°33'1615.7
2015-Mar-28 05:33N 56°21' E 012°22'1615.7
2015-Mar-28 04:33N 56°36' E 012°13'1615.9
2015-Mar-28 03:33N 56°51' E 012°05'1616.2
2015-Mar-28 02:33N 57°07' E 011°56'1716.9
2015-Mar-28 01:33N 57°22' E 011°42'1717.0
2015-Mar-28 00:33N 57°37' E 011°27'1817.6
2015-Mar-27 23:33N 57°53' E 011°15'1615.9
2015-Mar-27 22:33N 58°08' E 011°06'1515.4
2015-Mar-27 21:33N 58°23' E 010°58'1616.0
2015-Mar-27 20:33N 58°38' E 010°50'1716.4
2015-Mar-27 19:33N 58°54' E 010°43'1716.7
2015-Mar-27 18:33N 59°11' E 010°38'1716.8
2015-Mar-27 17:33N 59°28' E 010°33'2713.5
2015-Mar-27 15:33N 59°54' E 010°45'0 0.1
2015-Mar-27 14:29N 59°54' E 010°45'0 0.0
2015-Mar-27 13:29N 59°54' E 010°45'0 0.0
2015-Mar-27 12:32N 59°54' E 010°45'0 0.0
2015-Mar-27 11:32N 59°54' E 010°45'0 0.0
2015-Mar-27 10:32N 59°54' E 010°45'0 0.0
2015-Mar-27 09:32N 59°54' E 010°45'0 0.1
2015-Mar-27 08:34N 59°54' E 010°45'2713.3
2015-Mar-27 06:33N 59°28' E 010°34'1616.0
2015-Mar-27 05:33N 59°12' E 010°39'1716.6
2015-Mar-27 04:33N 58°56' E 010°42'1616.5
2015-Mar-27 03:33N 58°39' E 010°47'1616.2
2015-Mar-27 02:33N 58°24' E 010°57'1616.5
2015-Mar-27 01:33N 58°08' E 011°07'1716.6
2015-Mar-27 00:33N 57°52' E 011°15'1616.4
2015-Mar-26 23:33N 57°37' E 011°24'1616.2
2015-Mar-26 22:33N 57°21' E 011°33'1616.2
2015-Mar-26 21:33N 57°06' E 011°43'1716.7
2015-Mar-26 20:33N 56°50' E 011°53'1716.6
2015-Mar-26 19:33N 56°34' E 012°01'1615.8
2015-Mar-26 18:33N 56°20' E 012°14'1716.6
2015-Mar-26 17:33N 56°07' E 012°33'1615.7
2015-Mar-26 16:34N 55°53' E 012°44'1211.9
2015-Mar-26 15:33N 55°42' E 012°36'0 0.0
2015-Mar-26 14:31N 55°42' E 012°36'0 0.0
2015-Mar-26 13:31N 55°42' E 012°36'0 0.0
2015-Mar-26 12:31N 55°42' E 012°36'0 0.0
2015-Mar-26 11:31N 55°42' E 012°36'0 0.0
2015-Mar-26 10:31N 55°42' E 012°36'0 0.0
2015-Mar-26 09:31N 55°42' E 012°36'0 0.2
2015-Mar-26 08:33N 55°42' E 012°36'1110.6
2015-Mar-26 07:33N 55°53' E 012°40'1313.3
2015-Mar-26 06:33N 56°06' E 012°34'1413.6
2015-Mar-26 05:33N 56°18' E 012°23'1514.5
2015-Mar-26 04:32N 56°32' E 012°16'1414.8
2015-Mar-26 03:33N 56°46' E 012°08'1514.8
2015-Mar-26 02:33N 56°60' E 012°01'1514.8
2015-Mar-26 01:33N 57°14' E 011°52'1515.0
2015-Mar-26 00:33N 57°26' E 011°36'1616.1
2015-Mar-25 23:33N 57°41' E 011°24'1817.8
2015-Mar-25 22:33N 57°58' E 011°12'1717.4
2015-Mar-25 21:33N 58°14' E 011°03'1818.1
2015-Mar-25 20:33N 58°32' E 010°53'1817.8
2015-Mar-25 19:33N 58°49' E 010°45'2118.1
2015-Mar-25 18:24N 59°10' E 010°38'1518.2
2015-Mar-25 17:33N 59°25' E 010°33'3014.8
2015-Mar-25 15:33N 59°54' E 010°44'1 0.5
2015-Mar-25 14:22N 59°54' E 010°45'0 0.0
2015-Mar-25 13:25N 59°54' E 010°45'0 0.0
2015-Mar-25 12:22N 59°54' E 010°45'0 0.0
2015-Mar-25 11:25N 59°54' E 010°45'0 0.0
2015-Mar-25 10:28N 59°54' E 010°45'0 0.0
2015-Mar-25 09:28N 59°54' E 010°45'0 0.1
2015-Mar-25 08:33N 59°54' E 010°45'2713.4
2015-Mar-25 06:33N 59°28' E 010°34'1616.0
2015-Mar-25 05:34N 59°12' E 010°39'1616.0
2015-Mar-25 04:34N 58°56' E 010°42'1616.2
2015-Mar-25 03:33N 58°40' E 010°46'1616.3
2015-Mar-25 02:34N 58°25' E 010°56'1616.1
2015-Mar-25 01:34N 58°09' E 011°05'1616.3
2015-Mar-25 00:34N 57°54' E 011°14'1616.1
2015-Mar-24 23:33N 57°38' E 011°23'1615.8
2015-Mar-24 22:34N 57°23' E 011°32'1616.2
2015-Mar-24 21:34N 57°08' E 011°42'1616.2
2015-Mar-24 20:33N 56°52' E 011°52'1616.0
2015-Mar-24 19:34N 56°37' E 011°59'1616.0
2015-Mar-24 18:34N 56°23' E 012°12'1616.4
2015-Mar-24 17:34N 56°10' E 012°30'1515.2
2015-Mar-24 16:33N 55°57' E 012°43'1413.9
2015-Mar-24 15:33N 55°43' E 012°38'1 1.3
2015-Mar-24 14:31N 55°42' E 012°36'0 0.0
2015-Mar-24 13:31N 55°42' E 012°36'0 0.0
2015-Mar-24 12:31N 55°42' E 012°36'0 0.0
2015-Mar-24 11:31N 55°42' E 012°36'0 0.0
2015-Mar-24 10:31N 55°42' E 012°36'0 0.0
2015-Mar-24 09:31N 55°42' E 012°36'0 0.3
2015-Mar-24 08:33N 55°42' E 012°36'1111.5
2015-Mar-24 07:33N 55°54' E 012°40'1514.5
2015-Mar-24 06:33N 56°07' E 012°31'1715.7
2015-Mar-24 05:27N 56°24' E 012°20'1516.4
2015-Mar-24 04:32N 56°38' E 012°14'1616.3
2015-Mar-24 03:33N 56°54' E 012°07'1616.1
2015-Mar-24 02:33N 57°08' E 011°55'1616.2
2015-Mar-24 01:33N 57°22' E 011°40'1716.7
2015-Mar-24 00:33N 57°37' E 011°24'1717.0
2015-Mar-23 23:33N 57°52' E 011°12'1616.1
2015-Mar-23 22:33N 58°08' E 011°05'1616.3
2015-Mar-23 21:33N 58°24' E 010°55'1616.4
2015-Mar-23 20:33N 58°39' E 010°46'2015.6
2015-Mar-23 19:17N 58°59' E 010°41'1215.8
2015-Mar-23 18:33N 59°10' E 010°38'1615.8
2015-Mar-23 17:34N 59°26' E 010°33'2814.2
2015-Mar-23 15:33N 59°54' E 010°42'1 1.0
2015-Mar-23 14:09N 59°54' E 010°45'0 0.0
2015-Mar-23 13:27N 59°54' E 010°45'0 0.0
2015-Mar-23 12:27N 59°54' E 010°45'0 0.0
2015-Mar-23 11:27N 59°54' E 010°45'0 0.0
2015-Mar-23 10:30N 59°54' E 010°45'0 0.0
2015-Mar-23 09:15N 59°54' E 010°45'0 0.2
2015-Mar-23 08:33N 59°54' E 010°45'2713.3
2015-Mar-23 06:34N 59°28' E 010°34'1716.7
2015-Mar-23 05:34N 59°11' E 010°39'3215.9
2015-Mar-23 03:32N 58°39' E 010°47'1515.5
2015-Mar-23 02:34N 58°25' E 010°56'1616.0
2015-Mar-23 01:34N 58°10' E 011°06'1616.2
2015-Mar-23 00:33N 57°54' E 011°16'1615.8
2015-Mar-22 23:34N 57°40' E 011°25'1615.9
2015-Mar-22 22:34N 57°24' E 011°32'1616.3
2015-Mar-22 21:33N 57°08' E 011°41'1616.4
2015-Mar-22 20:33N 56°53' E 011°51'1616.3
2015-Mar-22 19:33N 56°39' E 012°07'1816.2
2015-Mar-22 18:28N 56°23' E 012°20'1716.4
2015-Mar-22 17:26N 56°08' E 012°32'1415.9
2015-Mar-22 16:33N 55°55' E 012°44'1413.6
2015-Mar-22 15:34N 55°42' E 012°36'0 0.4
2015-Mar-22 14:31N 55°42' E 012°36'0 0.0
2015-Mar-22 13:31N 55°42' E 012°36'0 0.0
2015-Mar-22 12:31N 55°42' E 012°36'0 0.0
2015-Mar-22 11:31N 55°42' E 012°36'0 0.0
2015-Mar-22 10:31N 55°42' E 012°36'0 0.0
2015-Mar-22 09:31N 55°42' E 012°36'0 0.0
2015-Mar-22 08:28N 55°42' E 012°36'0 0.0
2015-Mar-22 07:31N 55°42' E 012°36'8 8.8
2015-Mar-22 06:33N 55°50' E 012°42'1414.5
2015-Mar-22 05:33N 56°04' E 012°37'1414.0
2015-Mar-22 04:33N 56°16' E 012°24'1413.8
2015-Mar-22 03:33N 56°29' E 012°18'1414.0
2015-Mar-22 02:33N 56°43' E 012°13'1414.4
2015-Mar-22 01:33N 56°57' E 012°06'1514.6
2015-Mar-22 00:33N 57°11' E 011°55'1514.6
2015-Mar-21 23:34N 57°23' E 011°41'1716.5
2015-Mar-21 22:33N 57°37' E 011°25'1717.4
2015-Mar-21 21:33N 57°53' E 011°14'1717.2
2015-Mar-21 20:33N 58°10' E 011°05'1716.9
2015-Mar-21 19:33N 58°26' E 010°56'1717.3
2015-Mar-21 18:33N 58°43' E 010°47'3517.4
2015-Mar-21 16:33N 59°17' E 010°36'1717.4
2015-Mar-21 15:34N 59°34' E 010°38'1915.0
2015-Mar-21 14:20N 59°53' E 010°39'3 3.3
2015-Mar-21 13:25N 59°54' E 010°45'0 0.0
2015-Mar-21 12:22N 59°54' E 010°45'0 0.0
2015-Mar-21 11:28N 59°54' E 010°45'0 0.0
2015-Mar-21 10:28N 59°54' E 010°45'0 0.0
2015-Mar-21 09:28N 59°54' E 010°45'0 0.2
2015-Mar-21 08:33N 59°54' E 010°44'2613.2
2015-Mar-21 06:33N 59°28' E 010°34'1515.4
2015-Mar-21 05:33N 59°13' E 010°39'1515.4
2015-Mar-21 04:33N 58°58' E 010°42'1615.5
2015-Mar-21 03:33N 58°42' E 010°45'1515.1
2015-Mar-21 02:33N 58°28' E 010°54'1615.7
2015-Mar-21 01:33N 58°13' E 011°03'1616.2
2015-Mar-21 00:33N 57°57' E 011°12'1616.5
2015-Mar-20 23:33N 57°42' E 011°21'1716.6
2015-Mar-20 22:33N 57°26' E 011°31'1717.0
2015-Mar-20 21:33N 57°10' E 011°40'1616.7
2015-Mar-20 20:33N 56°54' E 011°50'1616.2
2015-Mar-20 19:33N 56°40' E 012°06'1716.8
2015-Mar-20 18:33N 56°25' E 012°17'1717.2
2015-Mar-20 17:33N 56°09' E 012°30'1716.5
2015-Mar-20 16:34N 55°54' E 012°44'1313.2
2015-Mar-20 15:33N 55°42' E 012°36'0 0.0
2015-Mar-20 14:33N 55°42' E 012°36'0 0.0
2015-Mar-20 13:33N 55°42' E 012°36'0 0.0
2015-Mar-20 12:30N 55°42' E 012°36'0 0.0
2015-Mar-20 11:33N 55°42' E 012°36'0 0.0
2015-Mar-20 10:33N 55°42' E 012°36'0 0.0
2015-Mar-20 09:33N 55°42' E 012°36'0 0.3
2015-Mar-20 08:33N 55°42' E 012°36'1111.5
2015-Mar-20 07:34N 55°54' E 012°40'1414.1
2015-Mar-20 06:33N 56°07' E 012°32'1514.9
2015-Mar-20 05:33N 56°21' E 012°22'1514.8
2015-Mar-20 04:33N 56°35' E 012°16'1515.5
2015-Mar-20 03:33N 56°50' E 012°10'1515.4
2015-Mar-20 02:34N 57°05' E 012°01'  

Dump ship's entire track history